createdAt,value
2019-03-28T00:00:49.496Z,54.15
2019-03-28T00:03:18.815Z,37.38
2019-03-28T00:05:48.070Z,30.55
2019-03-28T00:08:17.619Z,31.12
2019-03-28T00:10:46.907Z,42.25
2019-03-28T00:13:16.223Z,33.67
2019-03-28T00:15:45.835Z,38.83
2019-03-28T00:18:15.149Z,43.05
2019-03-28T00:20:44.744Z,37.85
2019-03-28T00:23:15.679Z,36.68
2019-03-28T00:25:44.966Z,38.92
2019-03-28T00:28:14.267Z,37.25
2019-03-28T00:30:44.350Z,35.08
2019-03-28T00:33:13.827Z,37.13
2019-03-28T00:35:43.116Z,36.65
2019-03-28T00:38:12.416Z,42.27
2019-03-28T00:40:41.699Z,34.60
2019-03-28T00:43:11.002Z,37.17
2019-03-28T00:45:40.274Z,36.23
2019-03-28T00:48:09.570Z,31.77
2019-03-28T00:50:38.854Z,34.83
2019-03-28T00:53:08.434Z,34.08
2019-03-28T00:55:38.043Z,32.35
2019-03-28T00:58:07.337Z,37.78
2019-03-28T01:00:36.935Z,39.13
2019-03-28T01:03:06.226Z,33.50
2019-03-28T01:05:35.510Z,34.53
2019-03-28T01:08:04.819Z,33.88
2019-03-28T01:10:34.107Z,36.88
2019-03-28T01:13:03.759Z,40.03
2019-03-28T01:15:33.128Z,41.42
2019-03-28T01:18:02.423Z,40.25
2019-03-28T01:20:31.741Z,48.15
2019-03-28T01:23:01.024Z,43.33
2019-03-28T01:25:30.415Z,44.83
2019-03-28T01:27:59.695Z,41.35
2019-03-28T01:30:28.987Z,40.17
2019-03-28T01:32:58.292Z,42.75
2019-03-28T01:35:27.601Z,42.88
2019-03-28T01:37:57.167Z,41.60
2019-03-28T01:40:27.698Z,46.42
2019-03-28T01:42:56.985Z,33.90
2019-03-28T01:45:26.279Z,42.23
2019-03-28T01:47:55.635Z,34.50
2019-03-28T01:50:24.945Z,39.63
2019-03-28T01:52:54.522Z,36.60
2019-03-28T01:55:24.114Z,45.15
2019-03-28T01:57:53.398Z,40.03
2019-03-28T02:00:22.698Z,40.60
2019-03-28T02:02:51.989Z,41.55
2019-03-28T02:05:21.522Z,41.30
2019-03-28T02:07:50.847Z,40.30
2019-03-28T02:10:21.467Z,47.35
2019-03-28T02:12:50.755Z,42.23
2019-03-28T02:15:20.378Z,43.45
2019-03-28T02:17:49.654Z,39.25
2019-03-28T02:20:19.058Z,46.88
2019-03-28T02:22:48.361Z,44.73
2019-03-28T02:25:18.723Z,40.50
2019-03-28T02:27:49.240Z,36.58
2019-03-28T02:30:21.919Z,45.00
2019-03-28T02:32:51.593Z,51.15
2019-03-28T02:35:20.994Z,44.50
2019-03-28T02:37:50.532Z,44.33
2019-03-28T02:40:19.843Z,40.58
2019-03-28T02:42:49.143Z,43.73
2019-03-28T02:45:18.462Z,42.73
2019-03-28T02:47:47.763Z,43.15
2019-03-28T02:50:17.047Z,52.95
2019-03-28T02:52:47.455Z,51.18
2019-03-28T02:55:16.798Z,55.67
2019-03-28T02:57:46.263Z,55.48
2019-03-28T03:00:15.984Z,56.63
2019-03-28T03:02:45.298Z,55.15
2019-03-28T03:05:14.651Z,64.25
2019-03-28T03:07:43.948Z,59.30
2019-03-28T03:10:13.373Z,54.65
2019-03-28T03:12:42.671Z,53.58
2019-03-28T03:15:12.351Z,55.73
2019-03-28T03:17:41.931Z,59.67
2019-03-28T03:20:11.526Z,61.95
2019-03-28T03:22:40.819Z,50.28
2019-03-28T03:25:10.548Z,62.25
2019-03-28T03:27:56.341Z,51.63
2019-03-28T03:30:11.082Z,52.83
2019-03-28T03:32:40.405Z,59.93
2019-03-28T03:35:09.980Z,55.90
2019-03-28T03:37:39.280Z,55.00
2019-03-28T03:40:09.238Z,49.45
2019-03-28T03:42:39.847Z,51.05
2019-03-28T03:45:09.820Z,51.23
2019-03-28T03:47:39.265Z,51.92
2019-03-28T03:50:09.371Z,56.80
2019-03-28T03:52:38.676Z,54.38
2019-03-28T03:55:08.138Z,62.73
2019-03-28T03:57:37.678Z,59.67
2019-03-28T04:00:07.523Z,62.23
2019-03-28T04:02:36.955Z,54.95
2019-03-28T04:05:07.522Z,54.63
2019-03-28T04:07:37.144Z,56.13
2019-03-28T04:10:06.969Z,55.30
2019-03-28T04:12:36.263Z,58.63
2019-03-28T04:15:06.968Z,56.53
2019-03-28T04:17:36.276Z,59.53
2019-03-28T04:20:07.104Z,59.40
2019-03-28T04:22:37.137Z,57.95
2019-03-28T04:25:07.029Z,60.30
2019-03-28T04:27:36.431Z,64.72
2019-03-28T04:30:07.806Z,62.85
2019-03-28T04:32:37.413Z,57.90
2019-03-28T04:35:07.046Z,61.48
2019-03-28T04:37:36.358Z,66.25
2019-03-28T04:40:07.127Z,59.58
2019-03-28T04:42:36.440Z,64.35
2019-03-28T04:45:06.288Z,59.38
2019-03-28T04:47:36.271Z,58.87
2019-03-28T04:50:06.554Z,55.17
2019-03-28T04:52:35.859Z,68.45
2019-03-28T04:55:06.752Z,58.90
2019-03-28T04:57:36.041Z,58.95
2019-03-28T05:00:07.979Z,56.18
2019-03-28T05:02:37.262Z,61.40
2019-03-28T05:05:07.847Z,62.85
2019-03-28T05:07:37.136Z,60.52
2019-03-28T05:10:10.407Z,60.45
2019-03-28T05:12:39.764Z,59.18
2019-03-28T05:15:10.699Z,63.68
2019-03-28T05:17:40.499Z,67.78
2019-03-28T05:20:13.147Z,62.88
2019-03-28T05:22:41.393Z,67.97
2019-03-28T05:25:10.853Z,67.62
2019-03-28T05:27:40.149Z,61.30
2019-03-28T05:30:10.379Z,69.35
2019-03-28T05:32:39.663Z,63.98
2019-03-28T05:35:11.123Z,63.13
2019-03-28T05:37:40.418Z,63.63
2019-03-28T05:40:10.997Z,67.82
2019-03-28T05:42:41.728Z,65.05
2019-03-28T05:45:12.002Z,64.15
2019-03-28T05:47:41.337Z,67.25
2019-03-28T05:50:10.722Z,63.30
2019-03-28T05:52:40.011Z,64.42
2019-03-28T05:55:09.734Z,68.57
2019-03-28T05:57:39.090Z,68.75
2019-03-28T06:00:09.151Z,71.35
2019-03-28T06:02:38.458Z,69.62
2019-03-28T06:05:07.939Z,66.22
2019-03-28T06:07:37.578Z,67.08
2019-03-28T06:10:08.510Z,61.42
2019-03-28T06:12:37.820Z,67.22
2019-03-28T06:15:08.054Z,68.42
2019-03-28T06:17:37.341Z,71.00
2019-03-28T06:20:08.179Z,72.78
2019-03-28T06:22:37.483Z,68.05
2019-03-28T06:25:07.190Z,72.30
2019-03-28T06:27:36.486Z,67.17
2019-03-28T06:30:08.173Z,69.17
2019-03-28T06:32:42.909Z,65.20
2019-03-28T06:35:08.541Z,62.45
2019-03-28T06:37:37.835Z,73.55
2019-03-28T06:40:08.774Z,71.62
2019-03-28T06:42:38.327Z,69.27
2019-03-28T06:45:09.328Z,73.07
2019-03-28T06:47:38.875Z,68.35
2019-03-28T06:50:09.239Z,70.32
2019-03-28T06:52:38.550Z,66.05
2019-03-28T06:55:08.072Z,71.40
2019-03-28T06:57:37.391Z,69.67
2019-03-28T07:00:08.674Z,66.47
2019-03-28T07:02:37.993Z,70.10
2019-03-28T07:05:08.188Z,65.80
2019-03-28T07:07:37.478Z,64.90
2019-03-28T07:10:07.209Z,60.63
2019-03-28T07:12:36.518Z,68.47
2019-03-28T07:15:07.739Z,71.30
2019-03-28T07:17:37.077Z,62.53
2019-03-28T07:20:09.029Z,65.57
2019-03-28T07:22:37.708Z,70.35
2019-03-28T07:25:07.427Z,71.45
2019-03-28T07:27:37.024Z,63.08
2019-03-28T07:30:07.748Z,67.53
2019-03-28T07:32:37.106Z,66.02
2019-03-28T07:35:06.967Z,70.60
2019-03-28T07:37:36.254Z,67.82
2019-03-28T07:40:06.411Z,72.53
2019-03-28T07:42:35.714Z,74.92
2019-03-28T07:45:08.426Z,52.98
2019-03-28T07:47:37.725Z,18.25
2019-03-28T07:50:08.961Z,28.37
2019-03-28T07:52:38.271Z,54.30
2019-03-28T07:55:08.106Z,51.07
2019-03-28T07:57:37.417Z,50.50
2019-03-28T08:00:09.591Z,53.33
2019-03-28T08:02:38.949Z,54.20
2019-03-28T08:05:09.623Z,54.57
2019-03-28T08:07:45.011Z,52.87
2019-03-28T08:10:10.340Z,50.63
2019-03-28T08:12:40.724Z,54.60
2019-03-28T08:15:10.796Z,54.23
2019-03-28T08:17:40.092Z,60.20
2019-03-28T08:20:11.143Z,65.27
2019-03-28T08:22:40.444Z,61.07
2019-03-28T08:25:11.990Z,60.20
2019-03-28T08:27:41.663Z,60.30
2019-03-28T08:30:18.914Z,67.93
2019-03-28T08:32:43.267Z,56.13
2019-03-28T08:35:12.733Z,59.20
2019-03-28T08:37:43.161Z,57.17
2019-03-28T08:40:15.562Z,55.33
2019-03-28T08:42:44.931Z,71.33
2019-03-28T08:45:14.247Z,56.23
2019-03-28T08:47:43.540Z,58.93
2019-03-28T08:50:12.842Z,57.73
2019-03-28T08:52:42.148Z,58.73
2019-03-28T08:55:11.603Z,68.33
2019-03-28T08:57:41.206Z,56.20
2019-03-28T09:00:11.792Z,57.17
2019-03-28T09:02:41.160Z,54.00
2019-03-28T09:05:11.524Z,55.97
2019-03-28T09:07:40.808Z,51.57
2019-03-28T09:10:10.352Z,48.87
2019-03-28T09:12:39.643Z,50.60
2019-03-28T09:15:09.481Z,49.80
2019-03-28T09:17:38.775Z,50.57
2019-03-28T09:20:08.890Z,51.00
2019-03-28T09:22:44.765Z,51.93
2019-03-28T09:25:16.772Z,48.10
2019-03-28T09:27:46.619Z,47.13
2019-03-28T09:30:19.008Z,46.90
2019-03-28T09:32:48.300Z,45.90
2019-03-28T09:35:23.298Z,48.60
2019-03-28T09:37:52.936Z,47.20
2019-03-28T09:40:22.313Z,43.77
2019-03-28T09:42:51.623Z,46.50
2019-03-28T09:45:21.502Z,51.10
2019-03-28T09:47:51.063Z,47.53
2019-03-28T09:50:20.687Z,45.87
2019-03-28T09:52:50.005Z,54.43
2019-03-28T09:55:19.297Z,47.57
2019-03-28T09:57:48.605Z,42.67
2019-03-28T10:00:19.146Z,50.33
2019-03-28T10:02:48.804Z,46.50
2019-03-28T10:05:18.207Z,45.17
2019-03-28T10:07:47.519Z,45.70
2019-03-28T10:10:17.125Z,41.80
2019-03-28T10:12:46.445Z,36.50
2019-03-28T10:15:16.411Z,30.03
2019-03-28T10:17:45.736Z,27.67
2019-03-28T10:20:15.066Z,30.80
2019-03-28T10:22:44.373Z,41.37
2019-03-28T10:25:14.542Z,45.30
2019-03-28T10:27:44.184Z,42.00
2019-03-28T10:30:13.823Z,45.47
2019-03-28T10:32:43.127Z,38.93
2019-03-28T10:35:15.985Z,40.77
2019-03-28T10:37:45.288Z,42.57
2019-03-28T10:40:14.585Z,40.00
2019-03-28T10:42:43.880Z,41.97
2019-03-28T10:45:13.672Z,36.53
2019-03-28T10:47:43.050Z,40.30
2019-03-28T10:50:12.720Z,45.63
2019-03-28T10:52:42.027Z,33.20
2019-03-28T10:55:11.324Z,37.90
2019-03-28T10:57:40.655Z,31.37
2019-03-28T11:00:23.131Z,31.93
2019-03-28T11:02:41.315Z,28.67
2019-03-28T11:05:10.668Z,55.17
2019-03-28T11:07:40.264Z,61.53
2019-03-28T11:10:09.892Z,32.40
2019-03-28T11:12:39.246Z,35.20
2019-03-28T11:15:08.675Z,33.87
2019-03-28T11:17:38.270Z,31.67
2019-03-28T11:20:07.803Z,33.27
2019-03-28T11:22:37.105Z,28.30
2019-03-28T11:25:07.350Z,32.40
2019-03-28T11:27:37.345Z,29.50
2019-03-28T11:30:08.680Z,37.80
2019-03-28T11:32:38.116Z,31.73
2019-03-28T11:35:08.920Z,31.77
2019-03-28T11:37:38.626Z,34.70
2019-03-28T11:40:09.871Z,30.83
2019-03-28T11:42:39.583Z,33.30
2019-03-28T11:45:09.946Z,28.27
2019-03-28T11:47:39.362Z,34.87
2019-03-28T11:50:09.437Z,33.20
2019-03-28T11:52:38.721Z,39.77
2019-03-28T11:55:08.949Z,32.87
2019-03-28T11:57:38.241Z,34.07
2019-03-28T12:00:11.429Z,35.93
2019-03-28T12:02:40.978Z,29.20
2019-03-28T12:05:11.521Z,32.27
2019-03-28T12:07:40.821Z,31.10
2019-03-28T12:10:11.733Z,36.00
2019-03-28T12:12:41.042Z,28.07
2019-03-28T12:15:11.453Z,29.47
2019-03-28T12:17:40.740Z,31.43
2019-03-28T12:20:10.763Z,36.80
2019-03-28T12:22:40.366Z,32.03
2019-03-28T12:25:10.078Z,35.80
2019-03-28T12:27:39.380Z,38.50
2019-03-28T12:30:16.053Z,28.50
2019-03-28T12:32:44.444Z,32.53
2019-03-28T12:35:13.828Z,30.80
2019-03-28T12:37:43.432Z,10.50
2019-03-28T12:40:13.599Z,38.17
2019-03-28T12:42:42.907Z,31.57
2019-03-28T12:45:12.879Z,28.37
2019-03-28T12:47:43.272Z,29.23
2019-03-28T12:50:14.144Z,31.20
2019-03-28T12:52:43.459Z,32.03
2019-03-28T12:55:12.954Z,33.27
2019-03-28T12:57:42.265Z,33.70
2019-03-28T13:00:12.822Z,35.00
2019-03-28T13:02:42.139Z,30.33
2019-03-28T13:05:11.903Z,33.40
2019-03-28T13:07:41.198Z,35.30
2019-03-28T13:10:12.303Z,34.03
2019-03-28T13:12:41.578Z,32.47
2019-03-28T13:15:11.447Z,30.63
2019-03-28T13:17:40.756Z,31.43
2019-03-28T13:20:10.124Z,31.87
2019-03-28T13:22:39.751Z,37.13
2019-03-28T13:25:09.296Z,35.87
2019-03-28T13:27:38.870Z,26.90
2019-03-28T13:30:12.958Z,32.97
2019-03-28T13:32:42.595Z,33.83
2019-03-28T13:35:12.155Z,30.00
2019-03-28T13:37:41.821Z,29.17
2019-03-28T13:40:13.441Z,38.30
2019-03-28T13:42:42.757Z,33.63
2019-03-28T13:45:12.599Z,33.90
2019-03-28T13:47:41.900Z,31.43
2019-03-28T13:50:13.125Z,30.60
2019-03-28T13:52:42.409Z,33.60
2019-03-28T13:55:11.873Z,29.53
2019-03-28T13:57:43.436Z,34.43
2019-03-28T14:00:13.988Z,29.07
2019-03-28T14:02:55.664Z,31.07
2019-03-28T14:05:14.964Z,33.77
2019-03-28T14:07:44.274Z,27.00
2019-03-28T14:10:14.012Z,29.33
2019-03-28T14:12:43.606Z,33.43
2019-03-28T14:15:13.027Z,31.27
2019-03-28T14:17:42.342Z,32.97
2019-03-28T14:20:12.072Z,28.93
2019-03-28T14:22:41.383Z,27.37
2019-03-28T14:25:11.019Z,31.07
2019-03-28T14:27:40.316Z,37.40
2019-03-28T14:30:11.666Z,29.40
2019-03-28T14:32:52.640Z,31.03
2019-03-28T14:35:13.375Z,27.50
2019-03-28T14:37:43.446Z,29.47
2019-03-28T14:40:13.282Z,38.03
2019-03-28T14:42:42.984Z,34.47
2019-03-28T14:45:12.697Z,32.30
2019-03-28T14:47:42.029Z,29.73
2019-03-28T14:50:12.078Z,31.80
2019-03-28T14:52:41.392Z,31.40
2019-03-28T14:55:10.757Z,32.27
2019-03-28T14:57:40.905Z,33.13
2019-03-28T15:00:25.239Z,33.57
2019-03-28T15:02:54.584Z,35.07
2019-03-28T15:05:23.887Z,33.73
2019-03-28T15:07:53.197Z,36.33
2019-03-28T15:10:22.512Z,30.80
2019-03-28T15:12:51.882Z,32.20
2019-03-28T15:15:21.184Z,31.93
2019-03-28T15:17:50.499Z,34.30
2019-03-28T15:20:19.818Z,31.47
2019-03-28T15:22:49.122Z,38.20
2019-03-28T15:25:18.692Z,38.13
2019-03-28T15:27:48.414Z,34.63
2019-03-28T15:30:18.384Z,31.67
2019-03-28T15:32:47.699Z,34.97
2019-03-28T15:35:17.355Z,31.93
2019-03-28T15:37:47.351Z,37.10
2019-03-28T15:40:17.127Z,43.03
2019-03-28T15:42:46.889Z,36.00
2019-03-28T15:45:16.197Z,31.43
2019-03-28T15:47:45.909Z,30.67
2019-03-28T15:50:15.490Z,32.70
2019-03-28T15:52:44.776Z,36.67
2019-03-28T15:55:14.810Z,36.93
2019-03-28T15:57:44.483Z,33.80
2019-03-28T16:00:16.212Z,29.90
2019-03-28T16:02:45.531Z,32.23
2019-03-28T16:05:15.191Z,34.97
2019-03-28T16:07:44.483Z,38.07
2019-03-28T16:10:15.022Z,35.00
2019-03-28T16:12:44.488Z,33.63
2019-03-28T16:15:14.823Z,40.77
2019-03-28T16:17:45.107Z,35.73
2019-03-28T16:20:15.193Z,36.40
2019-03-28T16:22:44.520Z,32.13
2019-03-28T16:25:13.838Z,31.87
2019-03-28T16:27:43.136Z,36.27
2019-03-28T16:30:13.934Z,35.17
2019-03-28T16:32:43.261Z,34.00
2019-03-28T16:35:12.887Z,40.40
2019-03-28T16:37:42.179Z,37.60
2019-03-28T16:40:12.127Z,33.10
2019-03-28T16:42:41.811Z,32.63
2019-03-28T16:45:11.664Z,38.63
2019-03-28T16:47:40.959Z,32.70
2019-03-28T16:50:10.692Z,36.53
2019-03-28T16:52:39.980Z,36.50
2019-03-28T16:55:09.447Z,38.90
2019-03-28T16:57:38.740Z,41.70
2019-03-28T17:00:13.897Z,40.50
2019-03-28T17:02:43.459Z,34.27
2019-03-28T17:05:12.894Z,40.20
2019-03-28T17:07:44.479Z,33.63
2019-03-28T17:10:19.731Z,36.73
2019-03-28T17:12:49.015Z,40.67
2019-03-28T17:15:18.644Z,35.47
2019-03-28T17:17:48.251Z,34.63
2019-03-28T17:20:17.553Z,35.90
2019-03-28T17:22:46.872Z,33.80
2019-03-28T17:25:16.465Z,27.60
2019-03-28T17:27:46.660Z,31.67
2019-03-28T17:30:16.497Z,29.20
2019-03-28T17:32:45.821Z,32.57
2019-03-28T17:35:15.427Z,32.40
2019-03-28T17:37:44.741Z,29.97
2019-03-28T17:40:14.174Z,31.47
2019-03-28T17:42:43.508Z,34.53
2019-03-28T17:45:12.940Z,32.20
2019-03-28T17:47:42.258Z,32.40
2019-03-28T17:50:11.956Z,28.53
2019-03-28T17:52:42.569Z,31.40
2019-03-28T17:55:11.951Z,31.90
2019-03-28T17:57:41.286Z,30.63
2019-03-28T18:00:10.974Z,35.57
2019-03-28T18:02:40.601Z,29.63
2019-03-28T18:05:12.871Z,36.50
2019-03-28T18:07:41.200Z,34.23
2019-03-28T18:10:10.701Z,32.07
2019-03-28T18:12:40.371Z,30.00
2019-03-28T18:15:10.088Z,29.23
2019-03-28T18:17:39.438Z,32.13
2019-03-28T18:20:09.433Z,34.17
2019-03-28T18:22:38.736Z,34.70
2019-03-28T18:25:08.229Z,30.07
2019-03-28T18:27:37.912Z,29.70
2019-03-28T18:30:08.497Z,29.73
2019-03-28T18:32:39.619Z,27.43
2019-03-28T18:35:09.186Z,27.80
2019-03-28T18:37:38.556Z,33.13
2019-03-28T18:40:08.299Z,35.83
2019-03-28T18:42:37.609Z,43.43
2019-03-28T18:45:08.439Z,43.87
2019-03-28T18:47:37.733Z,50.20
2019-03-28T18:50:10.192Z,34.90
2019-03-28T18:52:39.804Z,41.43
2019-03-28T18:55:09.344Z,50.07
2019-03-28T18:57:39.127Z,45.93
2019-03-28T19:00:09.793Z,46.30
2019-03-28T19:02:40.730Z,63.87
2019-03-28T19:05:19.540Z,49.07
2019-03-28T19:07:41.604Z,43.70
2019-03-28T19:10:11.842Z,42.87
2019-03-28T19:12:41.343Z,42.10
2019-03-28T19:15:11.397Z,38.40
2019-03-28T19:17:40.697Z,36.73
2019-03-28T19:20:10.494Z,37.50
2019-03-28T19:22:39.843Z,43.77
2019-03-28T19:25:09.924Z,60.70
2019-03-28T19:27:39.660Z,58.13
2019-03-28T19:30:10.664Z,43.67
2019-03-28T19:32:39.976Z,42.03
2019-03-28T19:35:10.562Z,40.20
2019-03-28T19:37:40.703Z,41.20
2019-03-28T19:40:10.654Z,41.23
2019-03-28T19:42:39.959Z,44.20
2019-03-28T19:45:09.636Z,43.60
2019-03-28T19:47:38.967Z,43.13
2019-03-28T19:50:10.944Z,48.70
2019-03-28T19:52:40.628Z,41.10
2019-03-28T19:55:13.016Z,41.20
2019-03-28T19:57:42.382Z,39.43
2019-03-28T20:00:12.461Z,46.20
2019-03-28T20:02:41.756Z,42.43
2019-03-28T20:05:11.142Z,40.43
2019-03-28T20:07:40.438Z,44.00
2019-03-28T20:10:16.167Z,39.73
2019-03-28T20:12:41.693Z,36.30
2019-03-28T20:15:11.137Z,39.20
2019-03-28T20:17:40.815Z,39.87
2019-03-28T20:20:10.215Z,42.50
2019-03-28T20:22:40.628Z,41.40
2019-03-28T20:25:10.072Z,40.13
2019-03-28T20:27:39.374Z,42.23
2019-03-28T20:30:09.272Z,42.17
2019-03-28T20:32:38.914Z,40.90
2019-03-28T20:35:10.733Z,46.97
2019-03-28T20:37:40.744Z,44.80
2019-03-28T20:40:11.899Z,43.13
2019-03-28T20:42:41.195Z,50.00
2019-03-28T20:45:11.404Z,49.60
2019-03-28T20:47:40.703Z,46.45
2019-03-28T20:50:11.048Z,53.70
2019-03-28T20:52:40.344Z,53.07
2019-03-28T20:55:10.020Z,47.05
2019-03-28T20:57:40.533Z,46.30
2019-03-28T21:00:10.804Z,50.20
2019-03-28T21:02:40.247Z,55.03
2019-03-28T21:05:10.547Z,48.20
2019-03-28T21:07:39.840Z,48.13
2019-03-28T21:10:12.230Z,51.77
2019-03-28T21:12:41.817Z,45.20
2019-03-28T21:15:11.618Z,50.92
2019-03-28T21:17:41.804Z,49.40
2019-03-28T21:20:12.647Z,51.50
2019-03-28T21:22:42.311Z,54.35
2019-03-28T21:25:11.716Z,51.30
2019-03-28T21:27:41.019Z,50.90
2019-03-28T21:30:10.484Z,53.28
2019-03-28T21:32:40.037Z,55.03
2019-03-28T21:35:10.032Z,55.90
2019-03-28T21:37:40.509Z,56.33
2019-03-28T21:40:09.877Z,51.98
2019-03-28T21:42:39.230Z,53.90
2019-03-28T21:45:09.041Z,57.40
2019-03-28T21:47:38.377Z,50.48
2019-03-28T21:50:07.922Z,51.50
2019-03-28T21:52:37.576Z,48.58
2019-03-28T21:55:07.516Z,47.13
2019-03-28T21:57:38.099Z,45.80
2019-03-28T22:00:08.383Z,49.30
2019-03-28T22:02:37.759Z,47.58
2019-03-28T22:05:08.914Z,51.10
2019-03-28T22:07:38.328Z,50.75
2019-03-28T22:10:09.154Z,52.88
2019-03-28T22:12:38.955Z,47.43
2019-03-28T22:15:08.463Z,52.58
2019-03-28T22:17:37.887Z,47.58
2019-03-28T22:20:07.443Z,46.53
2019-03-28T22:22:37.835Z,50.85
2019-03-28T22:25:07.769Z,52.33
2019-03-28T22:27:37.087Z,49.10
2019-03-28T22:30:07.529Z,49.70
2019-03-28T22:32:36.851Z,51.83
2019-03-28T22:35:07.814Z,48.92
2019-03-28T22:37:37.150Z,42.50
2019-03-28T22:40:11.482Z,50.78
2019-03-28T22:42:39.375Z,48.60
2019-03-28T22:45:09.179Z,46.37
2019-03-28T22:47:38.735Z,48.42
2019-03-28T22:50:09.600Z,46.50
2019-03-28T22:52:38.939Z,44.08
2019-03-28T22:55:09.092Z,42.98
2019-03-28T22:57:38.476Z,40.45
2019-03-28T23:00:12.075Z,43.75
2019-03-28T23:02:43.276Z,40.52
2019-03-28T23:05:14.937Z,41.02
2019-03-28T23:07:44.372Z,40.45
2019-03-28T23:10:14.053Z,44.48
2019-03-28T23:12:43.885Z,40.30
2019-03-28T23:15:13.439Z,43.15
2019-03-28T23:17:42.778Z,43.33
2019-03-28T23:20:12.304Z,39.58
2019-03-28T23:22:41.671Z,40.75
2019-03-28T23:25:11.214Z,39.40
2019-03-28T23:27:40.593Z,41.02
2019-03-28T23:30:10.039Z,39.38
2019-03-28T23:32:39.333Z,39.00
2019-03-28T23:35:09.080Z,42.95
2019-03-28T23:37:38.370Z,39.58
2019-03-28T23:40:09.017Z,38.15
2019-03-28T23:42:38.312Z,38.00
2019-03-28T23:45:13.039Z,37.95
2019-03-28T23:47:42.404Z,41.13
2019-03-28T23:50:13.100Z,40.10
2019-03-28T23:52:42.848Z,39.30
2019-03-28T23:55:12.478Z,34.70
2019-03-28T23:57:41.769Z,37.70
